createdAt,value
2022-08-12T00:00:29.079Z,19.03
2022-08-12T00:03:52.350Z,19.04
2022-08-12T00:07:13.566Z,18.92
2022-08-12T00:10:34.110Z,18.84
2022-08-12T00:13:54.691Z,18.78
2022-08-12T00:17:16.286Z,18.70
2022-08-12T00:20:38.287Z,18.67
2022-08-12T00:24:01.117Z,18.66
2022-08-12T00:27:25.113Z,18.65
2022-08-12T00:30:47.764Z,18.45
2022-08-12T00:34:08.516Z,18.58
2022-08-12T00:37:31.888Z,18.54
2022-08-12T00:40:52.659Z,18.53
2022-08-12T00:43:57.717Z,18.53
2022-08-12T00:47:02.680Z,18.51
2022-08-12T00:50:06.796Z,18.49
2022-08-12T00:53:11.391Z,18.47
2022-08-12T00:56:15.027Z,18.41
2022-08-12T00:59:17.985Z,18.38
2022-08-12T01:02:26.410Z,18.34
2022-08-12T01:05:48.548Z,18.31
2022-08-12T01:09:11.811Z,18.28
2022-08-12T01:12:15.072Z,18.21
2022-08-12T01:15:19.316Z,18.16
2022-08-12T01:18:23.670Z,18.13
2022-08-12T01:21:46.942Z,18.08
2022-08-12T01:25:07.290Z,18.04
2022-08-12T01:28:13.751Z,17.92
2022-08-12T01:31:18.522Z,17.97
2022-08-12T01:34:36.374Z,17.92
2022-08-12T01:37:48.359Z,17.89
2022-08-12T01:40:54.194Z,17.84
2022-08-12T01:44:01.027Z,17.79
2022-08-12T01:47:12.158Z,17.74
2022-08-12T01:50:22.622Z,17.68
2022-08-12T01:53:27.229Z,17.64
2022-08-12T01:56:34.883Z,17.58
2022-08-12T01:59:50.828Z,17.53
2022-08-12T02:03:04.601Z,17.47
2022-08-12T02:06:32.122Z,17.43
2022-08-12T02:10:08.540Z,17.38
2022-08-12T02:13:41.852Z,17.34
2022-08-12T02:16:58.813Z,17.31
2022-08-12T02:20:14.150Z,17.23
2022-08-12T02:23:19.833Z,17.26
2022-08-12T02:26:26.027Z,17.23
2022-08-12T02:29:30.650Z,17.16
2022-08-12T02:32:40.374Z,17.09
2022-08-12T02:35:43.571Z,17.07
2022-08-12T02:38:47.265Z,17.02
2022-08-12T02:41:53.262Z,17.02
2022-08-12T02:44:59.375Z,16.96
2022-08-12T02:48:06.531Z,16.94
2022-08-12T02:51:12.880Z,16.88
2022-08-12T02:54:15.666Z,16.84
2022-08-12T02:57:21.035Z,16.80
2022-08-12T03:00:28.721Z,16.79
2022-08-12T03:03:33.477Z,16.76
2022-08-12T03:06:52.876Z,16.69
2022-08-12T03:10:05.252Z,16.67
2022-08-12T03:13:10.960Z,16.65
2022-08-12T03:16:15.175Z,16.62
2022-08-12T03:19:21.473Z,16.61
2022-08-12T03:22:24.701Z,16.58
2022-08-12T03:25:27.947Z,16.53
2022-08-12T03:28:51.567Z,16.49
2022-08-12T03:32:01.116Z,16.45
2022-08-12T03:35:07.265Z,16.35
2022-08-12T03:38:16.437Z,16.42
2022-08-12T03:41:35.430Z,16.38
2022-08-12T03:44:57.904Z,16.35
2022-08-12T03:48:24.743Z,16.27
2022-08-12T03:51:45.340Z,16.22
2022-08-12T03:55:05.814Z,16.16
2022-08-12T03:58:26.443Z,16.10
2022-08-12T04:01:29.372Z,16.07
2022-08-12T04:04:34.728Z,16.05
2022-08-12T04:07:38.468Z,16.01
2022-08-12T04:11:18.941Z,15.99
2022-08-12T04:14:21.625Z,15.95
2022-08-12T04:17:25.282Z,15.93
2022-08-12T04:20:29.383Z,15.91
2022-08-12T04:23:33.780Z,15.88
2022-08-12T04:26:37.020Z,15.86
2022-08-12T04:30:30.212Z,15.85
2022-08-12T04:33:03.915Z,15.86
2022-08-12T04:36:08.980Z,15.88
2022-08-12T04:39:12.948Z,15.88
2022-08-12T04:42:16.104Z,15.86
2022-08-12T04:45:19.262Z,15.82
2022-08-12T04:48:25.443Z,15.79
2022-08-12T04:51:30.984Z,15.77
2022-08-12T04:54:34.595Z,15.78
2022-08-12T04:57:38.466Z,15.84
2022-08-12T05:00:41.208Z,15.91
2022-08-12T05:03:46.074Z,15.97
2022-08-12T05:06:50.958Z,16.01
2022-08-12T05:09:59.970Z,16.09
2022-08-12T05:13:06.518Z,16.17
2022-08-12T05:16:10.018Z,16.23
2022-08-12T05:19:22.385Z,16.28
2022-08-12T05:22:27.221Z,16.32
2022-08-12T05:25:29.918Z,16.39
2022-08-12T05:28:33.763Z,16.47
2022-08-12T05:31:47.713Z,16.53
2022-08-12T05:34:51.928Z,16.62
2022-08-12T05:38:10.404Z,16.74
2022-08-12T05:41:20.603Z,16.93
2022-08-12T05:44:23.773Z,17.00
2022-08-12T05:47:38.516Z,17.12
2022-08-12T05:50:52.604Z,17.25
2022-08-12T05:53:58.590Z,17.82
2022-08-12T05:57:02.195Z,19.40
2022-08-12T06:00:05.934Z,20.79
2022-08-12T06:03:08.933Z,21.91
2022-08-12T06:06:12.266Z,22.74
2022-08-12T06:09:16.357Z,23.24
2022-08-12T06:12:23.712Z,23.67
2022-08-12T06:15:26.966Z,24.05
2022-08-12T06:18:31.178Z,24.47
2022-08-12T06:21:34.392Z,24.82
2022-08-12T06:24:38.468Z,24.97
2022-08-12T06:28:06.088Z,25.02
2022-08-12T06:31:25.768Z,25.03
2022-08-12T06:35:26.732Z,25.09
2022-08-12T06:37:57.053Z,24.99
2022-08-12T06:41:19.925Z,24.89
2022-08-12T06:44:22.957Z,24.90
2022-08-12T06:47:25.766Z,25.00
2022-08-12T06:50:29.211Z,25.06
2022-08-12T06:53:33.919Z,25.16
2022-08-12T06:57:02.895Z,25.58
2022-08-12T07:00:01.685Z,25.84
2022-08-12T07:03:16.276Z,25.60
2022-08-12T07:06:25.703Z,25.67
2022-08-12T07:10:01.132Z,25.61
2022-08-12T07:12:55.391Z,25.61
2022-08-12T07:15:58.961Z,26.06
2022-08-12T07:19:04.201Z,26.47
2022-08-12T07:22:08.058Z,26.52
2022-08-12T07:25:29.137Z,26.44
2022-08-12T07:28:35.520Z,26.26
2022-08-12T07:31:42.760Z,26.47
2022-08-12T07:34:47.893Z,26.56
2022-08-12T07:37:53.201Z,26.39
2022-08-12T07:40:59.771Z,26.37
2022-08-12T07:44:06.576Z,26.75
2022-08-12T07:47:09.340Z,26.52
2022-08-12T07:50:23.436Z,26.18
2022-08-12T07:53:26.612Z,26.18
2022-08-12T07:56:31.173Z,26.04
2022-08-12T07:59:35.850Z,26.07
2022-08-12T08:02:38.829Z,25.81
2022-08-12T08:05:46.545Z,25.54
2022-08-12T08:08:49.754Z,25.32
2022-08-12T08:12:18.747Z,25.12
2022-08-12T08:15:51.142Z,25.04
2022-08-12T08:18:50.627Z,25.08
2022-08-12T08:21:55.179Z,24.84
2022-08-12T08:24:58.714Z,24.60
2022-08-12T08:28:03.753Z,24.46
2022-08-12T08:31:07.878Z,24.41
2022-08-12T08:34:27.458Z,24.37
2022-08-12T08:37:37.089Z,24.34
2022-08-12T08:41:01.568Z,24.39
2022-08-12T08:44:05.321Z,24.38
2022-08-12T08:47:11.200Z,24.37
2022-08-12T08:50:16.238Z,24.36
2022-08-12T08:53:19.850Z,24.37
2022-08-12T08:56:22.797Z,24.47
2022-08-12T08:59:25.543Z,24.52
2022-08-12T09:02:29.671Z,24.65
2022-08-12T09:06:01.828Z,24.72
2022-08-12T09:08:55.805Z,24.84
2022-08-12T09:12:16.552Z,24.94
2022-08-12T09:15:35.797Z,25.15
2022-08-12T09:18:41.316Z,25.37
2022-08-12T09:21:54.767Z,25.54
2022-08-12T09:25:00.063Z,25.67
2022-08-12T09:28:10.729Z,25.75
2022-08-12T09:32:03.969Z,25.87
2022-08-12T09:34:42.473Z,25.94
2022-08-12T09:37:58.119Z,26.04
2022-08-12T09:42:33.339Z,25.99
2022-08-12T09:44:42.644Z,26.23
2022-08-12T09:47:59.546Z,26.31
2022-08-12T09:51:11.015Z,26.22
2022-08-12T09:54:34.250Z,26.38
2022-08-12T09:58:45.199Z,26.46
2022-08-12T10:01:06.230Z,26.58
2022-08-12T10:04:19.887Z,26.59
2022-08-12T10:07:28.706Z,26.61
2022-08-12T10:10:58.995Z,26.75
2022-08-12T10:14:06.914Z,26.89
2022-08-12T10:17:17.367Z,26.91
2022-08-12T10:20:23.387Z,27.04
2022-08-12T10:23:39.410Z,27.11
2022-08-12T10:27:05.918Z,27.23
2022-08-12T10:30:39.492Z,27.15
2022-08-12T10:33:55.763Z,27.18
2022-08-12T10:37:21.020Z,27.26
2022-08-12T10:40:32.039Z,27.45
2022-08-12T10:43:55.299Z,27.39
2022-08-12T10:46:59.977Z,27.51
2022-08-12T10:50:28.662Z,27.57
2022-08-12T10:53:44.386Z,27.59
2022-08-12T10:56:54.135Z,27.67
2022-08-12T11:00:34.753Z,27.77
2022-08-12T11:04:22.340Z,27.94
2022-08-12T11:07:07.717Z,27.96
2022-08-12T11:10:13.913Z,27.98
2022-08-12T11:13:19.427Z,27.98
2022-08-12T11:16:42.268Z,28.09
2022-08-12T11:20:05.990Z,28.18
2022-08-12T11:23:25.787Z,28.35
2022-08-12T11:26:31.879Z,28.44
2022-08-12T11:30:05.747Z,28.25
2022-08-12T11:33:00.109Z,28.29
2022-08-12T11:36:14.654Z,28.37
2022-08-12T11:39:17.661Z,28.54
2022-08-12T11:42:46.983Z,28.76
2022-08-12T11:45:53.223Z,28.81
2022-08-12T11:48:59.321Z,28.89
2022-08-12T11:52:02.775Z,28.93
2022-08-12T11:55:06.312Z,28.98
2022-08-12T11:59:28.634Z,29.18
2022-08-12T12:02:02.015Z,29.18
2022-08-12T12:04:56.555Z,29.12
2022-08-12T12:08:40.979Z,29.18
2022-08-12T12:11:23.577Z,29.18
2022-08-12T12:14:38.058Z,29.31
2022-08-12T12:17:43.838Z,29.28
2022-08-12T12:20:47.083Z,29.46
2022-08-12T12:23:50.686Z,29.30
2022-08-12T12:27:00.527Z,29.37
2022-08-12T12:30:19.805Z,29.46
2022-08-12T12:33:57.448Z,29.49
2022-08-12T12:36:54.767Z,29.68
2022-08-12T12:39:58.647Z,29.68
2022-08-12T12:43:05.097Z,29.72
2022-08-12T12:46:08.788Z,29.75
2022-08-12T12:49:15.342Z,29.84
2022-08-12T12:52:21.311Z,29.86
2022-08-12T12:55:25.270Z,29.81
2022-08-12T12:58:35.453Z,29.58
2022-08-12T13:01:41.982Z,29.11
2022-08-12T13:04:47.809Z,29.25
2022-08-12T13:08:01.311Z,29.38
2022-08-12T13:11:06.565Z,29.46
2022-08-12T13:14:28.315Z,29.38
2022-08-12T13:18:02.068Z,29.66
2022-08-12T13:21:03.069Z,29.64
2022-08-12T13:24:09.968Z,29.55
2022-08-12T13:27:13.385Z,29.55
2022-08-12T13:30:20.299Z,29.73
2022-08-12T13:33:28.571Z,30.07
2022-08-12T13:36:33.385Z,30.32
2022-08-12T13:39:37.836Z,30.37
2022-08-12T13:42:40.872Z,30.15
2022-08-12T13:45:44.742Z,29.92
2022-08-12T13:48:48.276Z,29.83
2022-08-12T13:51:54.277Z,29.49
2022-08-12T13:54:57.506Z,29.27
2022-08-12T13:58:01.706Z,29.37
2022-08-12T14:01:06.480Z,29.72
2022-08-12T14:04:18.237Z,30.01
2022-08-12T14:07:29.527Z,30.15
2022-08-12T14:11:02.185Z,30.39
2022-08-12T14:14:12.899Z,30.63
2022-08-12T14:17:20.723Z,30.64
2022-08-12T14:20:26.661Z,30.52
2022-08-12T14:24:04.409Z,30.32
2022-08-12T14:26:56.758Z,30.27
2022-08-12T14:30:15.683Z,30.64
2022-08-12T14:33:19.766Z,30.52
2022-08-12T14:36:25.514Z,30.20
2022-08-12T14:39:29.849Z,29.98
2022-08-12T14:42:33.841Z,29.92
2022-08-12T14:45:47.033Z,29.90
2022-08-12T14:48:53.737Z,30.13
2022-08-12T14:52:55.728Z,30.31
2022-08-12T14:59:00.107Z,29.88
2022-08-12T15:02:04.033Z,29.89
2022-08-12T15:06:04.927Z,29.99
2022-08-12T15:08:38.661Z,30.18
2022-08-12T15:11:48.921Z,30.29
2022-08-12T15:15:00.858Z,30.33
2022-08-12T15:18:05.579Z,30.19
2022-08-12T15:21:11.776Z,30.14
2022-08-12T15:24:14.667Z,30.08
2022-08-12T15:27:22.198Z,30.07
2022-08-12T15:30:37.286Z,30.29
2022-08-12T15:33:46.328Z,30.10
2022-08-12T15:36:54.862Z,30.13
2022-08-12T15:40:01.128Z,30.30
2022-08-12T15:43:08.132Z,30.39
2022-08-12T15:46:15.762Z,30.30
2022-08-12T15:49:19.448Z,30.24
2022-08-12T15:52:27.619Z,30.21
2022-08-12T15:55:33.743Z,30.05
2022-08-12T15:58:41.236Z,29.76
2022-08-12T16:01:44.548Z,29.48
2022-08-12T16:04:51.491Z,29.35
2022-08-12T16:07:55.942Z,29.42
2022-08-12T16:10:58.704Z,29.47
2022-08-12T16:14:04.040Z,29.57
2022-08-12T16:17:08.874Z,29.63
2022-08-12T16:20:17.055Z,29.73
2022-08-12T16:23:35.961Z,29.85
2022-08-12T16:26:51.458Z,29.91
2022-08-12T16:29:59.251Z,29.88
2022-08-12T16:33:08.922Z,29.84
2022-08-12T16:36:13.589Z,29.72
2022-08-12T16:39:22.206Z,29.68
2022-08-12T16:42:28.399Z,29.58
2022-08-12T16:46:05.382Z,29.23
2022-08-12T16:48:59.616Z,29.18
2022-08-12T16:52:14.541Z,28.93
2022-08-12T16:55:19.560Z,28.82
2022-08-12T16:58:28.510Z,28.86
2022-08-12T17:01:37.576Z,28.82
2022-08-12T17:04:42.595Z,28.74
2022-08-12T17:07:56.250Z,28.79
2022-08-12T17:10:59.780Z,28.76
2022-08-12T17:14:02.892Z,28.74
2022-08-12T17:17:26.104Z,28.69
2022-08-12T17:20:38.749Z,28.65
2022-08-12T17:23:53.546Z,28.61
2022-08-12T17:26:58.522Z,28.62
2022-08-12T17:30:04.570Z,28.51
2022-08-12T17:33:17.150Z,28.47
2022-08-12T17:36:27.449Z,28.40
2022-08-12T17:40:06.513Z,28.32
2022-08-12T17:42:56.154Z,28.19
2022-08-12T17:46:01.987Z,28.08
2022-08-12T17:50:02.630Z,27.94
2022-08-12T17:52:33.217Z,27.69
2022-08-12T17:55:43.354Z,27.76
2022-08-12T17:58:58.161Z,27.57
2022-08-12T18:02:02.874Z,27.45
2022-08-12T18:05:10.599Z,27.34
2022-08-12T18:08:15.398Z,27.15
2022-08-12T18:12:03.747Z,27.09
2022-08-12T18:15:00.509Z,27.07
2022-08-12T18:18:04.634Z,27.02
2022-08-12T18:21:09.240Z,26.89
2022-08-12T18:24:22.074Z,26.76
2022-08-12T18:27:44.667Z,26.79
2022-08-12T18:30:52.496Z,26.67
2022-08-12T18:34:00.837Z,26.59
2022-08-12T18:37:29.429Z,26.59
2022-08-12T18:40:54.647Z,26.50
2022-08-12T18:44:03.003Z,26.29
2022-08-12T18:47:09.590Z,26.15
2022-08-12T18:50:16.289Z,26.06
2022-08-12T18:54:06.044Z,25.97
2022-08-12T18:56:46.565Z,25.84
2022-08-12T19:00:00.683Z,25.77
2022-08-12T19:03:06.235Z,25.65
2022-08-12T19:06:28.280Z,25.47
2022-08-12T19:09:39.010Z,25.31
2022-08-12T19:13:25.154Z,25.15
2022-08-12T19:16:37.337Z,24.95
2022-08-12T19:19:41.794Z,24.78
2022-08-12T19:23:02.195Z,24.73
2022-08-12T19:26:12.604Z,24.61
2022-08-12T19:29:18.541Z,24.54
2022-08-12T19:32:24.074Z,24.49
2022-08-12T19:36:07.769Z,24.47
2022-08-12T19:38:57.060Z,24.37
2022-08-12T19:42:02.582Z,24.31
2022-08-12T19:45:12.308Z,24.26
2022-08-12T19:48:18.397Z,24.21
2022-08-12T19:51:33.285Z,23.80
2022-08-12T19:54:36.878Z,23.78
2022-08-12T19:57:42.634Z,23.71
2022-08-12T20:01:05.200Z,23.69
2022-08-12T20:04:14.934Z,23.65
2022-08-12T20:07:23.013Z,23.60
2022-08-12T20:10:35.405Z,23.50
2022-08-12T20:13:42.870Z,23.44
2022-08-12T20:16:52.480Z,23.29
2022-08-12T20:20:19.206Z,23.18
2022-08-12T20:23:50.758Z,23.10
2022-08-12T20:26:48.315Z,22.99
2022-08-12T20:29:54.630Z,22.89
2022-08-12T20:33:00.588Z,22.80
2022-08-12T20:36:12.934Z,22.70
2022-08-12T20:39:53.425Z,22.59
2022-08-12T20:42:53.662Z,22.51
2022-08-12T20:45:58.391Z,22.44
2022-08-12T20:49:14.842Z,22.33
2022-08-12T20:52:22.905Z,22.25
2022-08-12T20:55:42.370Z,22.18
2022-08-12T20:58:49.861Z,22.09
2022-08-12T21:01:54.373Z,22.01
2022-08-12T21:05:21.883Z,21.95
2022-08-12T21:08:26.534Z,21.88
2022-08-12T21:11:30.413Z,21.82
2022-08-12T21:14:39.686Z,21.75
2022-08-12T21:18:11.642Z,21.69
2022-08-12T21:21:40.388Z,21.64
2022-08-12T21:24:50.714Z,21.59
2022-08-12T21:27:58.763Z,21.50
2022-08-12T21:32:36.135Z,21.47
2022-08-12T21:34:31.258Z,21.39
2022-08-12T21:37:37.103Z,21.32
2022-08-12T21:40:52.597Z,21.26
2022-08-12T21:44:00.858Z,21.19
2022-08-12T21:47:20.392Z,21.13
2022-08-12T21:50:29.467Z,21.11
2022-08-12T21:54:07.022Z,21.00
2022-08-12T21:56:56.163Z,20.90
2022-08-12T21:59:59.156Z,20.82
2022-08-12T22:04:01.814Z,20.76
2022-08-12T22:06:53.476Z,20.67
2022-08-12T22:09:57.315Z,20.62
2022-08-12T22:13:01.160Z,20.56
2022-08-12T22:16:05.053Z,20.45
2022-08-12T22:19:07.808Z,20.39
2022-08-12T22:22:12.462Z,20.31
2022-08-12T22:25:16.730Z,20.26
2022-08-12T22:28:40.550Z,20.21
2022-08-12T22:31:43.610Z,20.18
2022-08-12T22:34:47.099Z,20.13
2022-08-12T22:37:53.560Z,20.05
2022-08-12T22:41:01.720Z,20.02
2022-08-12T22:44:23.374Z,19.97
2022-08-12T22:47:55.171Z,19.91
2022-08-12T22:50:59.705Z,19.81
2022-08-12T22:54:03.876Z,19.71
2022-08-12T22:57:11.990Z,19.67
2022-08-12T23:00:23.600Z,19.56
2022-08-12T23:03:48.456Z,19.62
2022-08-12T23:06:55.619Z,19.59
2022-08-12T23:09:59.656Z,19.52
2022-08-12T23:13:21.693Z,19.47
2022-08-12T23:16:31.847Z,19.36
2022-08-12T23:19:38.469Z,19.33
2022-08-12T23:23:02.905Z,19.31
2022-08-12T23:26:10.358Z,19.27
2022-08-12T23:29:29.461Z,19.23
2022-08-12T23:32:35.219Z,19.19
2022-08-12T23:35:53.917Z,19.15
2022-08-12T23:39:03.743Z,19.06
2022-08-12T23:42:17.700Z,19.02
2022-08-12T23:45:31.295Z,18.94
2022-08-12T23:48:35.214Z,18.92
2022-08-12T23:51:39.119Z,18.87
2022-08-12T23:54:45.877Z,18.81
2022-08-12T23:58:20.653Z,18.74
